You are not logged in, Click here to log in
ICAO: LGKR Country: Kerkyra Island
Latitude: 39.6019 Longitude: 19.9117
Total Arrivals: 3 Total Departures: 2
Latest Arrival: 8HTK240 (LTAI-LGKR)Stone. Chang Latest Departure: BV24240 (LGKR-LGSK)Stone. Chang
Scenery:
METAR : LGKR 210720Z 04003KT CAVOK 28/22 Q1017 NOSIG

Ioannis Kapodistrias International Airport